Santa Clara, Oregon
Current Conditions -  °F | °C
As of 9:54 PM on Sunday 21 Dec 2014 (Local Time) from KEUG Reporting Station
Light Rain Light Rain  
Wind Chill: 51°   Ceiling: 2400
Heat Index: 51°   Visibility: 4mi
Dew Point: 50°   Wind: 3mph
Humidity: 96%   Direction: 150°SSE
Pressure: 30.2"   Gusts: NA
Location:  44.1°N, 123.12°W
Report Text: KEUG 220554Z 15003KT 4SM -RA BR FEW002 FEW019 OVC024 11/10 A3020 RMK AO2 RAB12 SLP228 P0003 60014 T01060100 10122 20106 51000 $
Loading
Personal Weather Stations






























Interactive Weather Map New forecast layout! Learn more

10-Day Weather Forecast

Advertisements
Track Severe Weather on mobile